sensor_id;sensor_type;location;lat;lon;timestamp;P1;durP1;ratioP1;P2;durP2;ratioP2
20306;SDS011;10312;52.434;13.206;2022-09-09T00:00:15;6.85;;;4.35;;
20306;SDS011;10312;52.434;13.206;2022-09-09T00:02:49;6.20;;;4.68;;
20306;SDS011;10312;52.434;13.206;2022-09-09T00:05:21;5.93;;;4.35;;
20306;SDS011;10312;52.434;13.206;2022-09-09T00:07:54;5.97;;;4.53;;
20306;SDS011;10312;52.434;13.206;2022-09-09T00:10:28;6.25;;;4.35;;
20306;SDS011;10312;52.434;13.206;2022-09-09T00:21:15;5.35;;;4.07;;
20306;SDS011;10312;52.434;13.206;2022-09-09T00:23:53;5.53;;;4.32;;
20306;SDS011;10312;52.434;13.206;2022-09-09T00:32:07;5.47;;;4.40;;
20306;SDS011;10312;52.434;13.206;2022-09-09T00:34:42;7.60;;;4.55;;
20306;SDS011;10312;52.434;13.206;2022-09-09T00:37:18;6.90;;;4.68;;
20306;SDS011;10312;52.434;13.206;2022-09-09T00:39:46;5.55;;;4.72;;
20306;SDS011;10312;52.434;13.206;2022-09-09T00:42:16;5.00;;;4.22;;
20306;SDS011;10312;52.434;13.206;2022-09-09T00:48:06;7.38;;;4.82;;
20306;SDS011;10312;52.434;13.206;2022-09-09T00:50:21;6.75;;;5.15;;
20306;SDS011;10312;52.434;13.206;2022-09-09T00:58:14;7.40;;;4.90;;
20306;SDS011;10312;52.434;13.206;2022-09-09T01:05:54;5.68;;;4.78;;
20306;SDS011;10312;52.434;13.206;2022-09-09T01:08:28;8.07;;;5.18;;
20306;SDS011;10312;52.434;13.206;2022-09-09T01:11:16;6.93;;;4.88;;
20306;SDS011;10312;52.434;13.206;2022-09-09T01:13:49;6.82;;;4.38;;
20306;SDS011;10312;52.434;13.206;2022-09-09T01:16:20;6.57;;;4.90;;
20306;SDS011;10312;52.434;13.206;2022-09-09T01:18:48;5.80;;;4.80;;
20306;SDS011;10312;52.434;13.206;2022-09-09T01:24:15;5.90;;;4.50;;
20306;SDS011;10312;52.434;13.206;2022-09-09T01:26:59;5.43;;;4.80;;
20306;SDS011;10312;52.434;13.206;2022-09-09T01:29:28;9.38;;;5.85;;
20306;SDS011;10312;52.434;13.206;2022-09-09T01:34:25;8.70;;;5.38;;
20306;SDS011;10312;52.434;13.206;2022-09-09T01:37:04;6.47;;;5.50;;
20306;SDS011;10312;52.434;13.206;2022-09-09T01:39:33;8.25;;;5.65;;
20306;SDS011;10312;52.434;13.206;2022-09-09T01:42:06;7.50;;;5.28;;
20306;SDS011;10312;52.434;13.206;2022-09-09T01:44:34;7.63;;;5.25;;
20306;SDS011;10312;52.434;13.206;2022-09-09T01:47:03;6.32;;;5.38;;
20306;SDS011;10312;52.434;13.206;2022-09-09T01:49:30;6.93;;;5.40;;
20306;SDS011;10312;52.434;13.206;2022-09-09T01:52:04;7.03;;;5.55;;
20306;SDS011;10312;52.434;13.206;2022-09-09T01:54:35;7.30;;;5.70;;
20306;SDS011;10312;52.434;13.206;2022-09-09T02:02:19;8.18;;;6.20;;
20306;SDS011;10312;52.434;13.206;2022-09-09T02:05:52;6.88;;;5.68;;
20306;SDS011;10312;52.434;13.206;2022-09-09T02:08:17;7.00;;;5.57;;
20306;SDS011;10312;52.434;13.206;2022-09-09T02:10:55;7.43;;;5.57;;
20306;SDS011;10312;52.434;13.206;2022-09-09T02:13:35;7.50;;;6.13;;
20306;SDS011;10312;52.434;13.206;2022-09-09T02:16:13;7.03;;;5.63;;
20306;SDS011;10312;52.434;13.206;2022-09-09T02:18:48;7.78;;;5.38;;
20306;SDS011;10312;52.434;13.206;2022-09-09T02:21:18;6.80;;;5.95;;
20306;SDS011;10312;52.434;13.206;2022-09-09T02:23:46;8.10;;;5.72;;
20306;SDS011;10312;52.434;13.206;2022-09-09T02:26:14;9.65;;;5.90;;
20306;SDS011;10312;52.434;13.206;2022-09-09T02:28:50;6.50;;;5.45;;
20306;SDS011;10312;52.434;13.206;2022-09-09T02:31:18;6.75;;;5.07;;
20306;SDS011;10312;52.434;13.206;2022-09-09T02:33:48;7.18;;;5.38;;
20306;SDS011;10312;52.434;13.206;2022-09-09T02:36:21;7.32;;;4.72;;
20306;SDS011;10312;52.434;13.206;2022-09-09T02:38:50;5.90;;;4.88;;
20306;SDS011;10312;52.434;13.206;2022-09-09T02:41:25;6.63;;;5.13;;
20306;SDS011;10312;52.434;13.206;2022-09-09T02:43:54;8.00;;;5.78;;
20306;SDS011;10312;52.434;13.206;2022-09-09T02:49:31;6.22;;;5.05;;
20306;SDS011;10312;52.434;13.206;2022-09-09T02:55:18;7.25;;;4.97;;
20306;SDS011;10312;52.434;13.206;2022-09-09T02:57:52;6.97;;;5.05;;
20306;SDS011;10312;52.434;13.206;2022-09-09T03:00:25;7.28;;;5.32;;
20306;SDS011;10312;52.434;13.206;2022-09-09T03:02:53;6.70;;;5.38;;
20306;SDS011;10312;52.434;13.206;2022-09-09T03:05:21;6.03;;;4.80;;
20306;SDS011;10312;52.434;13.206;2022-09-09T03:07:49;5.35;;;4.25;;
20306;SDS011;10312;52.434;13.206;2022-09-09T03:10:18;5.65;;;4.68;;
20306;SDS011;10312;52.434;13.206;2022-09-09T03:12:45;6.35;;;5.22;;
20306;SDS011;10312;52.434;13.206;2022-09-09T03:15:12;7.53;;;5.30;;
20306;SDS011;10312;52.434;13.206;2022-09-09T03:17:41;6.25;;;4.50;;
20306;SDS011;10312;52.434;13.206;2022-09-09T03:20:08;6.68;;;4.90;;
20306;SDS011;10312;52.434;13.206;2022-09-09T03:22:36;7.10;;;4.90;;
20306;SDS011;10312;52.434;13.206;2022-09-09T03:25:03;7.38;;;4.93;;
20306;SDS011;10312;52.434;13.206;2022-09-09T03:27:32;8.02;;;5.30;;
20306;SDS011;10312;52.434;13.206;2022-09-09T03:29:59;6.35;;;4.55;;
20306;SDS011;10312;52.434;13.206;2022-09-09T03:32:30;6.30;;;4.75;;
20306;SDS011;10312;52.434;13.206;2022-09-09T03:34:57;8.48;;;4.70;;
20306;SDS011;10312;52.434;13.206;2022-09-09T03:37:24;6.47;;;4.30;;
20306;SDS011;10312;52.434;13.206;2022-09-09T03:39:52;5.30;;;4.22;;
20306;SDS011;10312;52.434;13.206;2022-09-09T03:42:21;5.95;;;4.53;;
20306;SDS011;10312;52.434;13.206;2022-09-09T03:44:52;8.13;;;4.82;;
20306;SDS011;10312;52.434;13.206;2022-09-09T03:47:22;6.00;;;4.82;;
20306;SDS011;10312;52.434;13.206;2022-09-09T03:49:52;9.10;;;4.93;;
20306;SDS011;10312;52.434;13.206;2022-09-09T03:52:19;5.20;;;4.43;;
20306;SDS011;10312;52.434;13.206;2022-09-09T03:54:50;5.82;;;5.05;;
20306;SDS011;10312;52.434;13.206;2022-09-09T03:57:18;6.80;;;4.60;;
20306;SDS011;10312;52.434;13.206;2022-09-09T03:59:45;6.90;;;4.85;;
20306;SDS011;10312;52.434;13.206;2022-09-09T04:02:12;9.15;;;4.38;;
20306;SDS011;10312;52.434;13.206;2022-09-09T04:04:39;5.68;;;4.63;;
20306;SDS011;10312;52.434;13.206;2022-09-09T04:07:06;6.30;;;4.72;;
20306;SDS011;10312;52.434;13.206;2022-09-09T04:09:33;6.20;;;4.55;;
20306;SDS011;10312;52.434;13.206;2022-09-09T04:12:01;5.20;;;4.10;;
20306;SDS011;10312;52.434;13.206;2022-09-09T04:14:29;6.32;;;4.50;;
20306;SDS011;10312;52.434;13.206;2022-09-09T04:16:56;6.22;;;4.90;;
20306;SDS011;10312;52.434;13.206;2022-09-09T04:19:25;6.22;;;4.80;;
20306;SDS011;10312;52.434;13.206;2022-09-09T04:21:52;6.38;;;4.82;;
20306;SDS011;10312;52.434;13.206;2022-09-09T04:24:21;6.07;;;4.90;;
20306;SDS011;10312;52.434;13.206;2022-09-09T04:26:48;5.70;;;4.57;;
20306;SDS011;10312;52.434;13.206;2022-09-09T04:29:16;6.38;;;4.63;;
20306;SDS011;10312;52.434;13.206;2022-09-09T04:31:42;5.72;;;4.15;;
20306;SDS011;10312;52.434;13.206;2022-09-09T04:34:09;7.65;;;4.25;;
20306;SDS011;10312;52.434;13.206;2022-09-09T04:36:36;7.60;;;4.55;;
20306;SDS011;10312;52.434;13.206;2022-09-09T04:39:04;5.93;;;4.47;;
20306;SDS011;10312;52.434;13.206;2022-09-09T04:41:31;5.80;;;4.53;;
20306;SDS011;10312;52.434;13.206;2022-09-09T04:43:58;7.10;;;4.63;;
20306;SDS011;10312;52.434;13.206;2022-09-09T04:46:27;5.15;;;4.07;;
20306;SDS011;10312;52.434;13.206;2022-09-09T04:48:54;6.25;;;4.78;;
20306;SDS011;10312;52.434;13.206;2022-09-09T04:51:25;6.75;;;4.60;;
20306;SDS011;10312;52.434;13.206;2022-09-09T04:53:51;7.40;;;4.57;;
20306;SDS011;10312;52.434;13.206;2022-09-09T04:56:20;6.20;;;4.38;;
20306;SDS011;10312;52.434;13.206;2022-09-09T04:58:52;7.10;;;4.47;;
20306;SDS011;10312;52.434;13.206;2022-09-09T05:01:22;6.80;;;4.80;;
20306;SDS011;10312;52.434;13.206;2022-09-09T05:03:53;7.70;;;4.57;;
20306;SDS011;10312;52.434;13.206;2022-09-09T05:06:21;5.75;;;4.55;;
20306;SDS011;10312;52.434;13.206;2022-09-09T05:08:53;5.40;;;4.38;;
20306;SDS011;10312;52.434;13.206;2022-09-09T05:11:24;6.38;;;4.57;;
20306;SDS011;10312;52.434;13.206;2022-09-09T05:13:58;6.85;;;4.32;;
20306;SDS011;10312;52.434;13.206;2022-09-09T05:16:26;6.15;;;4.25;;
20306;SDS011;10312;52.434;13.206;2022-09-09T05:18:53;4.90;;;3.70;;
20306;SDS011;10312;52.434;13.206;2022-09-09T05:21:21;5.22;;;3.72;;
20306;SDS011;10312;52.434;13.206;2022-09-09T05:23:49;9.05;;;4.35;;
20306;SDS011;10312;52.434;13.206;2022-09-09T05:26:19;6.88;;;4.40;;
20306;SDS011;10312;52.434;13.206;2022-09-09T05:28:49;7.13;;;4.97;;
20306;SDS011;10312;52.434;13.206;2022-09-09T05:31:16;6.13;;;4.40;;
20306;SDS011;10312;52.434;13.206;2022-09-09T05:33:47;8.20;;;4.25;;
20306;SDS011;10312;52.434;13.206;2022-09-09T05:36:19;7.70;;;4.15;;
20306;SDS011;10312;52.434;13.206;2022-09-09T05:38:50;5.80;;;4.30;;
20306;SDS011;10312;52.434;13.206;2022-09-09T05:41:20;5.78;;;3.85;;
20306;SDS011;10312;52.434;13.206;2022-09-09T05:43:47;6.15;;;4.28;;
20306;SDS011;10312;52.434;13.206;2022-09-09T05:46:19;6.78;;;4.50;;
20306;SDS011;10312;52.434;13.206;2022-09-09T05:48:49;6.80;;;4.20;;
20306;SDS011;10312;52.434;13.206;2022-09-09T05:51:20;7.90;;;4.05;;
20306;SDS011;10312;52.434;13.206;2022-09-09T05:53:48;7.53;;;4.82;;
20306;SDS011;10312;52.434;13.206;2022-09-09T05:56:16;5.47;;;4.10;;
20306;SDS011;10312;52.434;13.206;2022-09-09T05:58:45;7.82;;;4.10;;
20306;SDS011;10312;52.434;13.206;2022-09-09T06:01:15;8.82;;;4.32;;
20306;SDS011;10312;52.434;13.206;2022-09-09T06:03:44;6.72;;;4.00;;
20306;SDS011;10312;52.434;13.206;2022-09-09T06:06:12;11.43;;;4.53;;
20306;SDS011;10312;52.434;13.206;2022-09-09T06:08:41;4.82;;;3.90;;
20306;SDS011;10312;52.434;13.206;2022-09-09T06:11:19;9.68;;;4.05;;
20306;SDS011;10312;52.434;13.206;2022-09-09T06:13:48;5.15;;;3.92;;
20306;SDS011;10312;52.434;13.206;2022-09-09T06:16:21;4.80;;;3.70;;
20306;SDS011;10312;52.434;13.206;2022-09-09T06:18:52;7.05;;;3.70;;
20306;SDS011;10312;52.434;13.206;2022-09-09T06:21:23;7.00;;;4.13;;
20306;SDS011;10312;52.434;13.206;2022-09-09T06:23:54;7.88;;;4.03;;
20306;SDS011;10312;52.434;13.206;2022-09-09T06:26:30;6.82;;;3.67;;
20306;SDS011;10312;52.434;13.206;2022-09-09T06:29:00;5.97;;;4.03;;
20306;SDS011;10312;52.434;13.206;2022-09-09T06:31:29;6.57;;;3.92;;
20306;SDS011;10312;52.434;13.206;2022-09-09T06:34:01;8.40;;;3.88;;
20306;SDS011;10312;52.434;13.206;2022-09-09T06:36:30;6.72;;;3.88;;
20306;SDS011;10312;52.434;13.206;2022-09-09T06:38:57;4.95;;;3.65;;
20306;SDS011;10312;52.434;13.206;2022-09-09T06:41:25;4.65;;;3.42;;
20306;SDS011;10312;52.434;13.206;2022-09-09T06:43:54;4.60;;;3.50;;
20306;SDS011;10312;52.434;13.206;2022-09-09T06:46:31;7.20;;;3.70;;
20306;SDS011;10312;52.434;13.206;2022-09-09T06:49:00;5.35;;;3.53;;
20306;SDS011;10312;52.434;13.206;2022-09-09T06:51:28;9.02;;;3.63;;
20306;SDS011;10312;52.434;13.206;2022-09-09T06:53:56;5.57;;;3.13;;
20306;SDS011;10312;52.434;13.206;2022-09-09T06:58:56;6.40;;;3.22;;
20306;SDS011;10312;52.434;13.206;2022-09-09T07:01:33;4.80;;;3.00;;
20306;SDS011;10312;52.434;13.206;2022-09-09T07:04:07;6.72;;;3.47;;
20306;SDS011;10312;52.434;13.206;2022-09-09T07:06:43;5.47;;;3.00;;
20306;SDS011;10312;52.434;13.206;2022-09-09T07:09:14;4.90;;;2.80;;
20306;SDS011;10312;52.434;13.206;2022-09-09T07:11:48;3.83;;;2.63;;
20306;SDS011;10312;52.434;13.206;2022-09-09T07:14:19;4.70;;;2.70;;
20306;SDS011;10312;52.434;13.206;2022-09-09T07:16:51;6.22;;;2.70;;
20306;SDS011;10312;52.434;13.206;2022-09-09T07:19:23;4.53;;;2.63;;
20306;SDS011;10312;52.434;13.206;2022-09-09T07:21:52;6.35;;;2.50;;
20306;SDS011;10312;52.434;13.206;2022-09-09T07:24:21;5.38;;;2.80;;
20306;SDS011;10312;52.434;13.206;2022-09-09T07:26:48;6.93;;;2.25;;
20306;SDS011;10312;52.434;13.206;2022-09-09T07:29:15;4.70;;;2.20;;
20306;SDS011;10312;52.434;13.206;2022-09-09T07:31:46;5.72;;;2.10;;
20306;SDS011;10312;52.434;13.206;2022-09-09T07:34:18;6.07;;;2.40;;
20306;SDS011;10312;52.434;13.206;2022-09-09T07:36:45;5.93;;;1.73;;
20306;SDS011;10312;52.434;13.206;2022-09-09T07:39:13;4.60;;;2.17;;
20306;SDS011;10312;52.434;13.206;2022-09-09T07:41:47;4.18;;;1.92;;
20306;SDS011;10312;52.434;13.206;2022-09-09T07:44:18;5.30;;;2.15;;
20306;SDS011;10312;52.434;13.206;2022-09-09T07:46:50;5.05;;;1.77;;
20306;SDS011;10312;52.434;13.206;2022-09-09T07:49:22;6.22;;;2.55;;
20306;SDS011;10312;52.434;13.206;2022-09-09T07:51:58;11.40;;;2.05;;
20306;SDS011;10312;52.434;13.206;2022-09-09T07:54:25;4.85;;;2.28;;
20306;SDS011;10312;52.434;13.206;2022-09-09T07:56:52;7.38;;;2.28;;
20306;SDS011;10312;52.434;13.206;2022-09-09T07:59:22;3.33;;;1.70;;
20306;SDS011;10312;52.434;13.206;2022-09-09T08:01:52;4.10;;;2.22;;
20306;SDS011;10312;52.434;13.206;2022-09-09T08:04:24;4.13;;;1.80;;
20306;SDS011;10312;52.434;13.206;2022-09-09T08:06:53;6.10;;;1.90;;
20306;SDS011;10312;52.434;13.206;2022-09-09T08:09:24;4.90;;;1.67;;
20306;SDS011;10312;52.434;13.206;2022-09-09T08:11:56;6.35;;;1.73;;
20306;SDS011;10312;52.434;13.206;2022-09-09T08:14:23;4.65;;;1.60;;
20306;SDS011;10312;52.434;13.206;2022-09-09T08:16:50;4.53;;;1.70;;
20306;SDS011;10312;52.434;13.206;2022-09-09T08:19:22;3.00;;;1.70;;
20306;SDS011;10312;52.434;13.206;2022-09-09T08:21:51;3.17;;;1.70;;
20306;SDS011;10312;52.434;13.206;2022-09-09T08:24:17;4.53;;;1.92;;
20306;SDS011;10312;52.434;13.206;2022-09-09T08:26:48;5.75;;;1.80;;
20306;SDS011;10312;52.434;13.206;2022-09-09T08:29:19;8.38;;;2.50;;
20306;SDS011;10312;52.434;13.206;2022-09-09T08:31:47;5.70;;;1.60;;
20306;SDS011;10312;52.434;13.206;2022-09-09T08:34:21;3.85;;;1.52;;
20306;SDS011;10312;52.434;13.206;2022-09-09T08:36:49;8.02;;;1.60;;
20306;SDS011;10312;52.434;13.206;2022-09-09T08:39:21;5.25;;;1.30;;
20306;SDS011;10312;52.434;13.206;2022-09-09T08:53:16;4.53;;;1.73;;
20306;SDS011;10312;52.434;13.206;2022-09-09T08:55:48;5.05;;;1.60;;
20306;SDS011;10312;52.434;13.206;2022-09-09T08:58:21;6.75;;;2.15;;
20306;SDS011;10312;52.434;13.206;2022-09-09T09:00:57;5.28;;;1.50;;
20306;SDS011;10312;52.434;13.206;2022-09-09T09:03:48;6.75;;;1.70;;
20306;SDS011;10312;52.434;13.206;2022-09-09T09:11:50;5.00;;;1.58;;
20306;SDS011;10312;52.434;13.206;2022-09-09T09:16:53;3.15;;;1.35;;
20306;SDS011;10312;52.434;13.206;2022-09-09T09:19:22;2.50;;;1.20;;
20306;SDS011;10312;52.434;13.206;2022-09-09T09:27:12;3.80;;;1.20;;
20306;SDS011;10312;52.434;13.206;2022-09-09T09:29:45;4.50;;;1.27;;
20306;SDS011;10312;52.434;13.206;2022-09-09T09:32:35;3.65;;;1.25;;
20306;SDS011;10312;52.434;13.206;2022-09-09T09:35:06;5.82;;;1.40;;
20306;SDS011;10312;52.434;13.206;2022-09-09T09:37:37;3.00;;;1.00;;
20306;SDS011;10312;52.434;13.206;2022-09-09T09:40:24;2.65;;;1.10;;
20306;SDS011;10312;52.434;13.206;2022-09-09T09:42:51;5.30;;;1.00;;
20306;SDS011;10312;52.434;13.206;2022-09-09T09:48:03;3.17;;;0.82;;
20306;SDS011;10312;52.434;13.206;2022-09-09T09:50:35;1.70;;;0.70;;
20306;SDS011;10312;52.434;13.206;2022-09-09T09:53:03;4.65;;;0.70;;
20306;SDS011;10312;52.434;13.206;2022-09-09T09:55:35;1.17;;;0.55;;
20306;SDS011;10312;52.434;13.206;2022-09-09T09:58:06;2.83;;;0.80;;
20306;SDS011;10312;52.434;13.206;2022-09-09T10:00:47;3.30;;;1.20;;
20306;SDS011;10312;52.434;13.206;2022-09-09T10:03:30;3.33;;;1.00;;
20306;SDS011;10312;52.434;13.206;2022-09-09T10:05:59;1.77;;;0.90;;
20306;SDS011;10312;52.434;13.206;2022-09-09T10:08:27;5.28;;;1.05;;
20306;SDS011;10312;52.434;13.206;2022-09-09T10:13:50;2.97;;;1.08;;
20306;SDS011;10312;52.434;13.206;2022-09-09T10:16:31;2.75;;;1.02;;
20306;SDS011;10312;52.434;13.206;2022-09-09T10:19:13;3.58;;;1.20;;
20306;SDS011;10312;52.434;13.206;2022-09-09T10:24:15;3.90;;;1.05;;
20306;SDS011;10312;52.434;13.206;2022-09-09T10:27:14;5.70;;;0.90;;
20306;SDS011;10312;52.434;13.206;2022-09-09T10:30:08;3.13;;;0.85;;
20306;SDS011;10312;52.434;13.206;2022-09-09T10:41:15;2.20;;;0.80;;
20306;SDS011;10312;52.434;13.206;2022-09-09T10:46:14;3.58;;;0.80;;
20306;SDS011;10312;52.434;13.206;2022-09-09T10:54:45;2.90;;;0.70;;
20306;SDS011;10312;52.434;13.206;2022-09-09T10:57:56;1.83;;;0.65;;
20306;SDS011;10312;52.434;13.206;2022-09-09T11:00:17;4.88;;;0.80;;
20306;SDS011;10312;52.434;13.206;2022-09-09T11:02:56;4.45;;;0.68;;
20306;SDS011;10312;52.434;13.206;2022-09-09T11:05:42;3.47;;;0.70;;
20306;SDS011;10312;52.434;13.206;2022-09-09T11:08:17;4.63;;;0.80;;
20306;SDS011;10312;52.434;13.206;2022-09-09T11:12:10;3.13;;;0.70;;
20306;SDS011;10312;52.434;13.206;2022-09-09T11:14:21;2.83;;;0.90;;
20306;SDS011;10312;52.434;13.206;2022-09-09T11:17:10;2.05;;;0.65;;
20306;SDS011;10312;52.434;13.206;2022-09-09T11:19:40;3.80;;;0.93;;
20306;SDS011;10312;52.434;13.206;2022-09-09T11:33:14;1.45;;;0.50;;
20306;SDS011;10312;52.434;13.206;2022-09-09T11:38:52;1.95;;;0.85;;
20306;SDS011;10312;52.434;13.206;2022-09-09T11:41:20;3.40;;;0.80;;
20306;SDS011;10312;52.434;13.206;2022-09-09T11:43:48;2.08;;;0.50;;
20306;SDS011;10312;52.434;13.206;2022-09-09T11:46:19;2.97;;;0.45;;
20306;SDS011;10312;52.434;13.206;2022-09-09T11:51:53;2.08;;;0.65;;
20306;SDS011;10312;52.434;13.206;2022-09-09T11:56:57;3.28;;;0.60;;
20306;SDS011;10312;52.434;13.206;2022-09-09T11:59:29;1.65;;;0.50;;
20306;SDS011;10312;52.434;13.206;2022-09-09T12:02:00;3.47;;;0.73;;
20306;SDS011;10312;52.434;13.206;2022-09-09T12:04:32;2.95;;;0.50;;
20306;SDS011;10312;52.434;13.206;2022-09-09T12:07:02;1.55;;;0.50;;
20306;SDS011;10312;52.434;13.206;2022-09-09T12:09:52;4.13;;;0.60;;
20306;SDS011;10312;52.434;13.206;2022-09-09T12:12:29;3.08;;;0.98;;
20306;SDS011;10312;52.434;13.206;2022-09-09T12:15:02;2.95;;;0.75;;
20306;SDS011;10312;52.434;13.206;2022-09-09T12:17:44;2.65;;;0.68;;
20306;SDS011;10312;52.434;13.206;2022-09-09T12:22:58;1.65;;;0.50;;
20306;SDS011;10312;52.434;13.206;2022-09-09T12:28:38;5.00;;;0.95;;
20306;SDS011;10312;52.434;13.206;2022-09-09T12:33:45;4.70;;;0.70;;
20306;SDS011;10312;52.434;13.206;2022-09-09T12:36:17;1.30;;;0.40;;
20306;SDS011;10312;52.434;13.206;2022-09-09T12:38:46;2.95;;;0.40;;
20306;SDS011;10312;52.434;13.206;2022-09-09T12:41:19;4.28;;;0.50;;
20306;SDS011;10312;52.434;13.206;2022-09-09T12:44:03;2.05;;;0.50;;
20306;SDS011;10312;52.434;13.206;2022-09-09T12:49:03;1.92;;;0.73;;
20306;SDS011;10312;52.434;13.206;2022-09-09T12:51:31;2.97;;;0.63;;
20306;SDS011;10312;52.434;13.206;2022-09-09T12:53:59;3.33;;;0.80;;
20306;SDS011;10312;52.434;13.206;2022-09-09T12:56:27;2.72;;;0.70;;
20306;SDS011;10312;52.434;13.206;2022-09-09T12:58:57;3.13;;;0.50;;
20306;SDS011;10312;52.434;13.206;2022-09-09T13:01:28;2.65;;;0.68;;
20306;SDS011;10312;52.434;13.206;2022-09-09T13:03:57;1.75;;;0.52;;
20306;SDS011;10312;52.434;13.206;2022-09-09T13:06:28;3.72;;;0.50;;
20306;SDS011;10312;52.434;13.206;2022-09-09T13:08:57;2.65;;;0.75;;
20306;SDS011;10312;52.434;13.206;2022-09-09T13:13:55;1.20;;;0.50;;
20306;SDS011;10312;52.434;13.206;2022-09-09T13:16:25;1.45;;;0.47;;
20306;SDS011;10312;52.434;13.206;2022-09-09T13:18:56;2.80;;;0.55;;
20306;SDS011;10312;52.434;13.206;2022-09-09T13:21:31;4.18;;;0.70;;
20306;SDS011;10312;52.434;13.206;2022-09-09T13:24:01;3.42;;;0.75;;
20306;SDS011;10312;52.434;13.206;2022-09-09T13:26:33;3.20;;;0.70;;
20306;SDS011;10312;52.434;13.206;2022-09-09T13:29:15;2.75;;;0.63;;
20306;SDS011;10312;52.434;13.206;2022-09-09T13:31:44;4.93;;;0.77;;
20306;SDS011;10312;52.434;13.206;2022-09-09T13:34:14;2.00;;;0.60;;
20306;SDS011;10312;52.434;13.206;2022-09-09T13:36:55;5.38;;;0.98;;
20306;SDS011;10312;52.434;13.206;2022-09-09T13:39:26;1.83;;;0.60;;
20306;SDS011;10312;52.434;13.206;2022-09-09T13:41:52;1.98;;;0.52;;
20306;SDS011;10312;52.434;13.206;2022-09-09T13:44:24;5.22;;;1.10;;
20306;SDS011;10312;52.434;13.206;2022-09-09T13:49:35;4.78;;;0.60;;
20306;SDS011;10312;52.434;13.206;2022-09-09T13:52:05;2.25;;;0.50;;
20306;SDS011;10312;52.434;13.206;2022-09-09T13:54:35;1.05;;;0.40;;
20306;SDS011;10312;52.434;13.206;2022-09-09T13:57:01;4.25;;;0.70;;
20306;SDS011;10312;52.434;13.206;2022-09-09T13:59:28;2.28;;;0.50;;
20306;SDS011;10312;52.434;13.206;2022-09-09T14:02:15;4.88;;;0.50;;
20306;SDS011;10312;52.434;13.206;2022-09-09T14:04:46;3.67;;;0.60;;
20306;SDS011;10312;52.434;13.206;2022-09-09T14:07:17;2.05;;;0.50;;
20306;SDS011;10312;52.434;13.206;2022-09-09T14:09:44;2.30;;;0.60;;
20306;SDS011;10312;52.434;13.206;2022-09-09T14:12:16;2.75;;;0.70;;
20306;SDS011;10312;52.434;13.206;2022-09-09T14:14:43;5.05;;;1.33;;
20306;SDS011;10312;52.434;13.206;2022-09-09T14:17:10;2.63;;;0.82;;
20306;SDS011;10312;52.434;13.206;2022-09-09T14:19:37;6.28;;;0.75;;
20306;SDS011;10312;52.434;13.206;2022-09-09T14:22:04;2.50;;;0.60;;
20306;SDS011;10312;52.434;13.206;2022-09-09T14:24:31;3.03;;;0.50;;
20306;SDS011;10312;52.434;13.206;2022-09-09T14:26:59;2.83;;;0.70;;
20306;SDS011;10312;52.434;13.206;2022-09-09T14:29:25;3.20;;;0.50;;
20306;SDS011;10312;52.434;13.206;2022-09-09T14:31:53;2.97;;;0.57;;
20306;SDS011;10312;52.434;13.206;2022-09-09T14:34:19;1.75;;;0.40;;
20306;SDS011;10312;52.434;13.206;2022-09-09T14:36:46;1.20;;;0.40;;
20306;SDS011;10312;52.434;13.206;2022-09-09T14:39:13;2.25;;;0.50;;
20306;SDS011;10312;52.434;13.206;2022-09-09T14:41:40;3.53;;;1.08;;
20306;SDS011;10312;52.434;13.206;2022-09-09T14:44:07;2.25;;;0.63;;
20306;SDS011;10312;52.434;13.206;2022-09-09T14:46:34;2.85;;;0.70;;
20306;SDS011;10312;52.434;13.206;2022-09-09T14:49:01;4.10;;;0.70;;
20306;SDS011;10312;52.434;13.206;2022-09-09T14:51:28;2.75;;;0.65;;
20306;SDS011;10312;52.434;13.206;2022-09-09T14:53:57;3.20;;;0.90;;
20306;SDS011;10312;52.434;13.206;2022-09-09T14:56:26;3.60;;;0.63;;
20306;SDS011;10312;52.434;13.206;2022-09-09T14:58:56;5.05;;;0.77;;
20306;SDS011;10312;52.434;13.206;2022-09-09T15:01:25;4.35;;;0.65;;
20306;SDS011;10312;52.434;13.206;2022-09-09T15:03:56;4.03;;;0.60;;
20306;SDS011;10312;52.434;13.206;2022-09-09T15:06:28;4.60;;;0.75;;
20306;SDS011;10312;52.434;13.206;2022-09-09T15:08:56;2.72;;;0.80;;
20306;SDS011;10312;52.434;13.206;2022-09-09T15:11:28;2.28;;;0.80;;
20306;SDS011;10312;52.434;13.206;2022-09-09T15:13:56;3.35;;;0.70;;
20306;SDS011;10312;52.434;13.206;2022-09-09T15:16:26;13.52;;;1.35;;
20306;SDS011;10312;52.434;13.206;2022-09-09T15:18:55;4.20;;;0.70;;
20306;SDS011;10312;52.434;13.206;2022-09-09T15:21:23;11.07;;;0.95;;
20306;SDS011;10312;52.434;13.206;2022-09-09T15:23:52;4.07;;;0.70;;
20306;SDS011;10312;52.434;13.206;2022-09-09T15:26:20;5.03;;;0.90;;
20306;SDS011;10312;52.434;13.206;2022-09-09T15:28:47;2.90;;;0.77;;
20306;SDS011;10312;52.434;13.206;2022-09-09T15:33:46;3.45;;;0.73;;
20306;SDS011;10312;52.434;13.206;2022-09-09T15:36:24;5.28;;;0.77;;
20306;SDS011;10312;52.434;13.206;2022-09-09T15:38:54;3.03;;;1.08;;
20306;SDS011;10312;52.434;13.206;2022-09-09T15:41:21;4.82;;;0.82;;
20306;SDS011;10312;52.434;13.206;2022-09-09T15:43:49;3.88;;;0.95;;
20306;SDS011;10312;52.434;13.206;2022-09-09T15:46:22;3.20;;;0.70;;
20306;SDS011;10312;52.434;13.206;2022-09-09T15:48:51;2.28;;;0.63;;
20306;SDS011;10312;52.434;13.206;2022-09-09T15:51:20;3.40;;;0.98;;
20306;SDS011;10312;52.434;13.206;2022-09-09T15:54:08;3.17;;;0.70;;
20306;SDS011;10312;52.434;13.206;2022-09-09T15:56:35;3.10;;;0.68;;
20306;SDS011;10312;52.434;13.206;2022-09-09T15:59:02;4.15;;;0.77;;
20306;SDS011;10312;52.434;13.206;2022-09-09T16:01:29;5.63;;;1.00;;
20306;SDS011;10312;52.434;13.206;2022-09-09T16:03:58;3.30;;;0.50;;
20306;SDS011;10312;52.434;13.206;2022-09-09T16:06:25;4.00;;;0.43;;
20306;SDS011;10312;52.434;13.206;2022-09-09T16:08:55;6.95;;;0.60;;
20306;SDS011;10312;52.434;13.206;2022-09-09T16:11:23;2.50;;;0.70;;
20306;SDS011;10312;52.434;13.206;2022-09-09T16:13:52;4.72;;;0.60;;
20306;SDS011;10312;52.434;13.206;2022-09-09T16:16:21;2.40;;;0.80;;
20306;SDS011;10312;52.434;13.206;2022-09-09T16:18:50;3.65;;;0.70;;
20306;SDS011;10312;52.434;13.206;2022-09-09T16:23:45;4.88;;;0.73;;
20306;SDS011;10312;52.434;13.206;2022-09-09T16:26:13;3.33;;;0.80;;
20306;SDS011;10312;52.434;13.206;2022-09-09T16:28:41;7.50;;;0.68;;
20306;SDS011;10312;52.434;13.206;2022-09-09T16:31:09;4.93;;;0.70;;
20306;SDS011;10312;52.434;13.206;2022-09-09T16:33:37;3.22;;;0.57;;
20306;SDS011;10312;52.434;13.206;2022-09-09T16:36:04;1.90;;;0.88;;
20306;SDS011;10312;52.434;13.206;2022-09-09T16:38:33;4.05;;;0.80;;
20306;SDS011;10312;52.434;13.206;2022-09-09T16:41:00;3.13;;;0.95;;
20306;SDS011;10312;52.434;13.206;2022-09-09T16:43:27;6.20;;;1.15;;
20306;SDS011;10312;52.434;13.206;2022-09-09T16:45:54;7.93;;;1.15;;
20306;SDS011;10312;52.434;13.206;2022-09-09T16:48:20;4.45;;;0.80;;
20306;SDS011;10312;52.434;13.206;2022-09-09T16:50:47;3.10;;;0.75;;
20306;SDS011;10312;52.434;13.206;2022-09-09T16:53:15;4.70;;;0.93;;
20306;SDS011;10312;52.434;13.206;2022-09-09T16:55:42;3.65;;;0.80;;
20306;SDS011;10312;52.434;13.206;2022-09-09T16:58:10;4.00;;;1.67;;
20306;SDS011;10312;52.434;13.206;2022-09-09T17:00:37;7.32;;;1.05;;
20306;SDS011;10312;52.434;13.206;2022-09-09T17:03:04;3.63;;;1.25;;
20306;SDS011;10312;52.434;13.206;2022-09-09T17:05:30;3.60;;;1.20;;
20306;SDS011;10312;52.434;13.206;2022-09-09T17:07:58;2.35;;;0.93;;
20306;SDS011;10312;52.434;13.206;2022-09-09T17:10:25;3.65;;;1.08;;
20306;SDS011;10312;52.434;13.206;2022-09-09T17:12:52;3.80;;;1.20;;